Time;durP1;ratioP1;P1;durP2;ratioP2;P2;SDS_P1;SDS_P2;PMS_P1;PMS_P2;Temp;Humidity;BMP_temperature;BMP_pressure;BME280_temperature;BME280_humidity;BME280_pressure;Samples;Min_cycle;Max_cycle;Signal;HPM_P1;HPM_P2
2024/02/07 00:02:02;;;;;;;5.30;3.20;;;;;;;9.30;79.18;98288.27;134335;1262;108490;-84
2024/02/07 00:05:09;;;;;;;6.20;3.20;;;;;;;9.29;78.83;98279.79;134361;1262;108265;-84
2024/02/07 00:08:14;;;;;;;5.40;3.10;;;;;;;9.26;78.81;98278.20;134351;1262;108731;-83
2024/02/07 00:11:20;;;;;;;11.20;4.70;;;;;;;9.23;78.79;98279.66;134324;1262;106688;-84
2024/02/07 00:14:26;;;;;;;5.60;2.80;;;;;;;9.20;79.20;98274.15;134341;1262;107693;-84
2024/02/07 00:17:31;;;;;;;6.40;3.20;;;;;;;9.21;79.10;98272.23;134348;1262;107581;-84
2024/02/07 00:20:37;;;;;;;7.00;2.70;;;;;;;9.25;79.00;98269.27;134353;1262;108874;-84
2024/02/07 00:23:43;;;;;;;4.80;2.70;;;;;;;9.28;78.90;98265.28;134333;1262;107758;-84
2024/02/07 00:26:48;;;;;;;5.20;2.90;;;;;;;9.30;78.91;98260.34;134357;1262;107743;-84
2024/02/07 00:29:54;;;;;;;4.70;2.80;;;;;;;9.29;78.82;98249.54;134335;1262;108827;-83
2024/02/07 00:33:00;;;;;;;5.60;3.10;;;;;;;9.27;78.69;98246.29;134367;1262;107511;-84
2024/02/07 00:36:07;;;;;;;5.20;2.80;;;;;;;9.26;78.99;98246.80;134346;1262;108625;-84
2024/02/07 00:39:12;;;;;;;4.60;2.70;;;;;;;9.25;79.03;98241.60;134357;1262;107803;-84
2024/02/07 00:42:18;;;;;;;3.40;2.00;;;;;;;9.24;78.65;98236.39;134328;1263;108760;-84
2024/02/07 00:45:24;;;;;;;4.60;2.50;;;;;;;9.25;78.81;98234.88;134322;1263;107342;-83
2024/02/07 00:48:29;;;;;;;6.00;2.90;;;;;;;9.29;78.65;98227.83;134332;1262;108644;-83
2024/02/07 00:51:35;;;;;;;4.90;2.70;;;;;;;9.32;78.11;98226.45;134351;1262;106329;-84
2024/02/07 00:54:40;;;;;;;6.10;2.30;;;;;;;9.36;78.23;98217.68;134338;1263;106507;-84
2024/02/07 00:57:48;;;;;;;6.40;2.80;;;;;;;9.39;78.57;98218.16;134350;1263;106892;-84
2024/02/07 01:00:54;;;;;;;5.50;2.70;;;;;;;9.39;78.44;98220.48;134353;1263;106667;-84
2024/02/07 01:04:00;;;;;;;3.70;2.30;;;;;;;9.36;78.65;98217.31;134368;1262;106845;-84
2024/02/07 01:07:07;;;;;;;4.20;2.70;;;;;;;9.33;78.69;98210.86;134351;1263;106766;-85
2024/02/07 01:10:13;;;;;;;5.70;2.50;;;;;;;9.31;78.67;98206.22;134331;1262;105901;-84
2024/02/07 01:13:18;;;;;;;6.30;3.10;;;;;;;9.28;78.72;98205.14;134344;1262;106830;-84
2024/02/07 01:16:24;;;;;;;6.70;2.90;;;;;;;9.30;78.75;98199.75;134332;1263;108593;-84
2024/02/07 01:19:30;;;;;;;6.90;3.20;;;;;;;9.35;78.85;98191.02;134358;1262;106453;-84
2024/02/07 01:22:35;;;;;;;6.00;2.60;;;;;;;9.41;78.71;98194.78;134360;1262;108595;-83
2024/02/07 01:25:42;;;;;;;5.90;2.70;;;;;;;9.43;78.79;98184.92;134375;1262;107848;-84
2024/02/07 01:28:48;;;;;;;5.00;2.20;;;;;;;9.43;78.88;98178.91;134356;1263;108713;-85
2024/02/07 01:31:54;;;;;;;5.60;2.00;;;;;;;9.43;78.70;98167.27;134344;1263;107606;-84
2024/02/07 01:35:00;;;;;;;3.90;2.20;;;;;;;9.41;78.49;98169.95;134339;1262;108663;-84
2024/02/07 01:38:07;;;;;;;3.90;2.30;;;;;;;9.38;78.55;98162.52;134366;1262;107804;-85
2024/02/07 01:41:13;;;;;;;3.60;2.20;;;;;;;9.34;78.44;98168.23;134352;1262;107853;-84
2024/02/07 01:44:18;;;;;;;3.30;1.80;;;;;;;9.32;78.73;98157.17;134330;1263;108583;-83
2024/02/07 01:47:24;;;;;;;3.00;2.10;;;;;;;9.33;78.83;98160.86;134357;1263;107006;-84
2024/02/07 01:50:30;;;;;;;5.10;2.50;;;;;;;9.38;78.84;98158.40;134363;1262;106731;-84
2024/02/07 01:53:38;;;;;;;3.80;2.10;;;;;;;9.43;78.76;98157.92;134367;1262;107119;-84
2024/02/07 01:56:45;;;;;;;3.40;2.20;;;;;;;9.48;78.37;98157.73;134365;1262;107446;-84
2024/02/07 01:59:51;;;;;;;4.00;2.10;;;;;;;9.48;78.24;98146.36;134348;1262;107721;-84
2024/02/07 02:02:58;;;;;;;3.60;2.10;;;;;;;9.46;78.71;98150.61;134259;1262;107602;-84
2024/02/07 02:06:03;;;;;;;3.20;2.40;;;;;;;9.43;78.58;98141.96;134351;1263;108741;-84
2024/02/07 02:09:09;;;;;;;3.00;1.90;;;;;;;9.40;78.42;98132.08;134354;1263;107811;-85
2024/02/07 02:12:15;;;;;;;4.50;1.70;;;;;;;9.37;78.26;98137.95;134346;1263;108740;-83
2024/02/07 02:15:22;;;;;;;3.50;1.70;;;;;;;9.36;78.50;98135.66;134367;1263;108438;-84
2024/02/07 02:18:30;;;;;;;4.20;1.90;;;;;;;9.38;78.38;98141.29;134344;1262;106399;-84
2024/02/07 02:21:50;;;;;;;5.50;2.00;;;;;;;9.43;78.32;98134.22;134348;1262;108739;-84
2024/02/07 02:25:15;;;;;;;2.80;1.80;;;;;;;9.48;78.35;98124.08;134352;1262;108587;-85
2024/02/07 02:28:32;;;;;;;3.40;1.80;;;;;;;9.50;78.13;98114.91;134356;1262;107637;-84
2024/02/07 02:31:38;;;;;;;4.40;2.20;;;;;;;9.50;77.95;98113.45;134371;1262;108661;-84
2024/02/07 02:34:46;;;;;;;5.20;2.40;;;;;;;9.50;78.04;98110.33;134380;1262;107782;-85
2024/02/07 02:37:51;;;;;;;3.30;2.00;;;;;;;9.46;78.15;98100.82;134244;1264;108576;-83
2024/02/07 02:40:57;;;;;;;6.00;2.00;;;;;;;9.46;78.23;98099.79;134369;1262;106335;-85
2024/02/07 02:44:02;;;;;;;2.80;1.90;;;;;;;9.44;77.82;98099.11;134368;1262;107774;-84
2024/02/07 02:47:08;;;;;;;2.30;1.60;;;;;;;9.41;78.05;98092.56;134360;1262;107788;-85
2024/02/07 02:50:15;;;;;;;3.30;2.10;;;;;;;9.40;78.06;98088.21;134384;1263;108683;-84
2024/02/07 02:53:21;;;;;;;3.10;1.70;;;;;;;9.42;77.75;98080.64;134373;1263;107667;-83
2024/02/07 02:56:27;;;;;;;5.40;3.60;;;;;;;9.44;78.23;98079.02;134368;1262;107014;-84
2024/02/07 02:59:35;;;;;;;7.30;3.00;;;;;;;9.48;78.27;98086.08;134270;1262;108523;-83
2024/02/07 03:02:43;;;;;;;3.70;2.60;;;;;;;9.49;78.23;98079.52;134289;1262;106505;-84
2024/02/07 03:05:58;;;;;;;5.20;2.20;;;;;;;9.49;78.41;98073.30;134290;1262;108753;-83
2024/02/07 03:09:07;;;;;;;3.90;2.00;;;;;;;9.47;78.11;98060.98;134270;1262;108630;-84
2024/02/07 03:12:13;;;;;;;4.80;2.10;;;;;;;9.42;78.28;98060.14;134283;1263;106688;-84
2024/02/07 03:15:20;;;;;;;3.00;1.60;;;;;;;9.39;78.61;98059.27;134263;1263;108678;-84
2024/02/07 03:18:26;;;;;;;4.40;2.00;;;;;;;9.35;78.65;98058.19;134282;1263;107708;-83
2024/02/07 03:21:32;;;;;;;2.90;1.70;;;;;;;9.31;78.62;98047.23;134254;1263;107576;-85
2024/02/07 03:24:38;;;;;;;3.10;2.00;;;;;;;9.30;78.61;98043.83;134272;1262;108482;-84
2024/02/07 03:27:44;;;;;;;3.40;1.90;;;;;;;9.33;78.71;98034.80;134316;1262;108651;-84
2024/02/07 03:30:50;;;;;;;3.30;1.70;;;;;;;9.35;78.83;98038.77;134396;1262;107793;-84
2024/02/07 03:33:56;;;;;;;4.40;2.10;;;;;;;9.35;79.10;98036.15;134359;1263;106570;-84
2024/02/07 03:37:01;;;;;;;5.60;2.10;;;;;;;9.32;78.81;98033.41;134351;1263;107756;-84
2024/02/07 03:40:12;;;;;;;4.70;2.20;;;;;;;9.31;79.21;98033.42;134302;1262;108627;-87
2024/02/07 03:43:18;;;;;;;20.50;13.50;;;;;;;9.28;78.91;98028.97;134332;1262;106586;-82
2024/02/07 03:46:24;;;;;;;18.30;7.20;;;;;;;9.26;79.18;98033.21;134158;1263;188120;-81
2024/02/07 03:49:29;;;;;;;25.90;13.30;;;;;;;9.21;79.23;98031.00;134320;1263;108904;-83
2024/02/07 03:52:35;;;;;;;27.90;13.70;;;;;;;9.20;79.25;98024.31;134335;1263;108781;-81
2024/02/07 03:55:41;;;;;;;10.30;4.70;;;;;;;9.23;79.84;98019.41;134308;1263;108691;-81
2024/02/07 03:58:47;;;;;;;16.40;7.80;;;;;;;9.23;80.02;98013.30;134257;1263;108650;-80
2024/02/07 04:01:52;;;;;;;21.50;9.10;;;;;;;9.22;79.96;98011.30;134285;1263;108689;-80
2024/02/07 04:04:58;;;;;;;16.80;5.90;;;;;;;9.20;80.19;98002.71;134299;1262;107229;-80
2024/02/07 04:08:07;;;;;;;71.00;23.10;;;;;;;9.14;80.46;97999.11;134339;1262;108830;-81
2024/02/07 05:18:02;;;;;;;232.60;85.70;;;;;;;8.83;82.17;97950.19;134360;1263;106393;-80
2024/02/07 05:21:09;;;;;;;293.80;101.90;;;;;;;8.79;82.42;97962.31;134359;1263;108745;-80
2024/02/07 05:24:16;;;;;;;93.40;36.20;;;;;;;8.75;82.54;97967.41;134323;1263;107014;-81
2024/02/07 05:27:21;;;;;;;335.00;130.00;;;;;;;8.74;82.62;97977.67;134352;1264;108717;-81
2024/02/07 05:30:27;;;;;;;13.70;6.10;;;;;;;8.75;82.96;98020.87;134357;1263;106376;-81
2024/02/07 05:33:32;;;;;;;4.00;1.40;;;;;;;8.60;85.05;98066.59;134352;1262;107977;-81
2024/02/07 05:36:38;;;;;;;6.70;3.40;;;;;;;8.07;86.15;98083.59;134367;1262;108816;-81
2024/02/07 05:39:43;;;;;;;4.80;2.40;;;;;;;7.30;87.67;98088.48;134323;1262;108927;-81
2024/02/07 05:42:49;;;;;;;4.50;1.90;;;;;;;6.83;88.26;98102.48;134326;1262;108536;-81
2024/02/07 05:45:55;;;;;;;6.70;3.30;;;;;;;6.58;89.63;98107.23;134304;1263;108702;-81
2024/02/07 05:49:01;;;;;;;2.80;1.50;;;;;;;6.41;89.86;98116.30;134305;1263;106377;-81
2024/02/07 05:52:07;;;;;;;6.40;2.90;;;;;;;6.26;91.23;98119.57;134345;1263;106390;-81
2024/02/07 05:55:12;;;;;;;3.10;0.90;;;;;;;6.11;92.11;98122.98;134330;1262;108572;-81
2024/02/07 05:58:17;;;;;;;1.40;0.80;;;;;;;5.95;92.91;98138.14;134361;1263;106713;-81
2024/02/07 06:01:23;;;;;;;2.20;0.90;;;;;;;5.83;93.04;98136.98;134332;1264;108655;-81
2024/02/07 06:04:29;;;;;;;3.10;2.20;;;;;;;5.74;93.98;98141.58;134362;1263;108725;-81
2024/02/07 06:07:34;;;;;;;2.70;1.60;;;;;;;5.65;94.23;98148.38;134356;1264;108851;-81
2024/02/07 06:10:42;;;;;;;2.60;1.70;;;;;;;5.60;93.67;98150.44;134351;1263;108793;-81
2024/02/07 06:13:47;;;;;;;3.90;2.10;;;;;;;5.58;92.90;98154.30;134327;1264;106600;-81
2024/02/07 06:16:53;;;;;;;22.60;10.80;;;;;;;5.62;92.47;98155.96;134364;1263;108525;-81
2024/02/07 06:19:59;;;;;;;23.60;8.70;;;;;;;5.59;93.84;98162.83;134374;1262;107686;-81
2024/02/07 06:23:05;;;;;;;7.90;3.80;;;;;;;5.48;93.80;98169.48;134316;1263;108739;-80
2024/02/07 06:26:11;;;;;;;4.10;3.00;;;;;;;5.40;94.42;98173.75;134322;1263;108617;-80
2024/02/07 06:29:16;;;;;;;1.80;1.00;;;;;;;5.29;95.61;98183.13;134311;1263;106555;-81
2024/02/07 06:32:22;;;;;;;1.80;1.10;;;;;;;5.20;96.02;98196.36;134281;1264;108707;-81
2024/02/07 06:35:28;;;;;;;1.60;1.20;;;;;;;5.10;96.43;98195.96;134264;1263;108069;-81
2024/02/07 06:38:33;;;;;;;1.90;1.60;;;;;;;5.05;95.88;98203.69;134246;1263;107718;-81
2024/02/07 06:41:39;;;;;;;2.60;1.70;;;;;;;5.08;94.60;98214.13;134265;1263;108527;-81
2024/02/07 06:44:44;;;;;;;3.10;2.00;;;;;;;5.07;93.96;98216.90;134261;1264;108647;-81
2024/02/07 06:47:50;;;;;;;4.10;2.80;;;;;;;5.02;93.55;98220.61;134299;1263;108927;-81
2024/02/07 06:50:56;;;;;;;2.30;1.40;;;;;;;4.93;93.99;98227.04;134266;1263;109069;-81
2024/02/07 06:54:02;;;;;;;2.20;1.60;;;;;;;4.87;93.43;98229.95;134265;1263;108607;-80
2024/02/07 06:57:07;;;;;;;2.80;2.20;;;;;;;4.82;93.35;98227.17;134274;1263;107945;-80
2024/02/07 07:00:15;;;;;;;5.70;4.00;;;;;;;4.78;94.07;98232.20;134265;1264;107917;-81
2024/02/07 07:03:21;;;;;;;2.70;1.70;;;;;;;4.75;94.58;98237.20;134317;1263;108355;-82
2024/02/07 07:06:27;;;;;;;3.80;2.90;;;;;;;4.72;94.69;98235.30;134335;1263;106818;-82
2024/02/07 07:09:33;;;;;;;12.60;6.40;;;;;;;4.74;93.83;98233.56;134356;1263;108740;-82
2024/02/07 07:12:39;;;;;;;0.80;0.60;;;;;;;4.67;93.32;98247.59;134362;1264;106698;-82
2024/02/07 07:15:44;;;;;;;1.60;0.90;;;;;;;4.51;92.68;98246.42;134354;1262;108471;-82
2024/02/07 07:18:52;;;;;;;2.50;1.30;;;;;;;4.41;92.92;98247.61;134328;1263;107578;-82
2024/02/07 07:21:58;;;;;;;0.90;0.60;;;;;;;4.36;92.32;98252.73;134363;1264;108421;-82
2024/02/07 07:25:05;;;;;;;1.30;0.50;;;;;;;4.24;92.41;98254.11;134328;1263;106297;-82
2024/02/07 07:28:10;;;;;;;1.60;0.60;;;;;;;4.19;91.90;98250.48;134342;1264;106700;-82
2024/02/07 07:31:16;;;;;;;3.40;1.00;;;;;;;4.15;91.97;98265.48;134370;1263;106488;-82
2024/02/07 07:34:22;;;;;;;3.30;1.20;;;;;;;4.10;91.69;98256.20;134350;1263;108651;-82
2024/02/07 07:37:29;;;;;;;1.80;1.00;;;;;;;4.07;91.56;98252.74;134342;1262;108564;-82
2024/02/07 07:40:37;;;;;;;5.60;3.00;;;;;;;4.07;91.82;98263.00;134337;1263;108594;-82
2024/02/07 07:43:43;;;;;;;2.20;1.00;;;;;;;4.21;92.01;98260.96;134361;1262;106504;-82
2024/02/07 07:46:49;;;;;;;5.30;2.40;;;;;;;4.36;91.31;98265.55;134373;1262;108682;-82
2024/02/07 07:49:54;;;;;;;8.30;3.00;;;;;;;4.48;90.52;98266.09;134349;1263;106365;-82
2024/02/07 07:53:00;;;;;;;31.10;12.50;;;;;;;4.44;90.06;98267.53;134367;1263;107219;-82
2024/02/07 07:56:07;;;;;;;157.10;57.80;;;;;;;4.33;89.80;98269.17;134356;1263;106233;-82
2024/02/07 07:59:13;;;;;;;397.30;140.50;;;;;;;4.27;89.89;98271.27;134342;1263;107066;-82
2024/02/07 08:02:20;;;;;;;131.60;44.50;;;;;;;4.24;89.79;98272.98;134367;1264;108146;-82
2024/02/07 08:05:27;;;;;;;27.70;10.00;;;;;;;4.21;89.67;98267.90;134359;1264;106359;-82
2024/02/07 08:08:33;;;;;;;32.10;11.00;;;;;;;4.20;90.02;98265.35;134351;1263;107563;-82
2024/02/07 08:11:38;;;;;;;125.60;45.00;;;;;;;4.16;89.79;98267.52;134352;1264;108647;-82
2024/02/07 08:14:44;;;;;;;176.80;73.40;;;;;;;4.23;89.94;98272.02;134362;1263;107680;-82
2024/02/07 08:17:50;;;;;;;13.60;6.30;;;;;;;4.28;89.78;98276.77;134354;1262;107254;-82
2024/02/07 08:20:55;;;;;;;54.60;26.30;;;;;;;4.21;89.34;98274.56;134348;1263;108638;-82
2024/02/07 08:24:01;;;;;;;84.60;41.00;;;;;;;4.26;89.68;98274.89;134355;1262;108718;-82
2024/02/07 08:27:07;;;;;;;28.50;13.40;;;;;;;4.38;89.74;98270.44;134333;1264;107876;-82
2024/02/07 08:30:14;;;;;;;51.30;24.60;;;;;;;4.46;89.31;98264.13;134353;1263;106254;-82
2024/02/07 08:33:20;;;;;;;91.20;41.20;;;;;;;4.53;89.25;98269.44;134367;1262;105646;-82
2024/02/07 08:36:25;;;;;;;103.00;51.90;;;;;;;4.58;89.17;98264.30;134333;1263;108882;-83
2024/02/07 08:39:31;;;;;;;60.40;34.50;;;;;;;4.62;89.19;98261.80;134288;1263;108429;-82
2024/02/07 08:42:37;;;;;;;19.50;12.90;;;;;;;4.68;89.17;98260.89;134316;1264;107586;-81
2024/02/07 08:45:43;;;;;;;5.70;3.80;;;;;;;4.72;88.89;98259.45;134356;1263;108701;-82
2024/02/07 08:48:48;;;;;;;5.50;2.90;;;;;;;4.79;89.13;98258.02;134340;1262;107589;-82
2024/02/07 08:51:54;;;;;;;6.20;3.40;;;;;;;4.93;89.12;98254.36;134352;1263;106006;-82
2024/02/07 08:54:59;;;;;;;3.50;2.20;;;;;;;4.97;88.24;98252.17;134341;1264;108705;-82
2024/02/07 08:58:05;;;;;;;4.00;2.20;;;;;;;4.97;88.54;98251.11;134356;1263;108553;-81
2024/02/07 09:01:13;;;;;;;2.50;1.70;;;;;;;5.01;88.61;98251.40;134353;1264;106933;-82
2024/02/07 09:04:19;;;;;;;3.60;1.90;;;;;;;5.05;88.73;98244.77;134347;1262;108605;-81
2024/02/07 09:07:24;;;;;;;3.70;1.50;;;;;;;5.11;88.53;98248.19;134310;1263;106378;-81
2024/02/07 09:10:30;;;;;;;35.40;15.90;;;;;;;5.13;88.26;98252.25;134354;1263;108781;-82
2024/02/07 09:13:36;;;;;;;21.60;6.40;;;;;;;5.24;88.84;98256.27;134373;1264;107822;-82
2024/02/07 09:16:42;;;;;;;34.80;17.40;;;;;;;5.36;88.58;98256.73;134351;1262;106504;-83
2024/02/07 09:19:48;;;;;;;15.60;6.30;;;;;;;5.49;88.17;98254.59;134337;1264;107819;-86
2024/02/07 09:22:53;;;;;;;9.40;3.30;;;;;;;5.47;88.05;98254.23;134360;1263;107768;-90
2024/02/07 09:25:59;;;;;;;6.60;2.40;;;;;;;5.51;88.35;98254.75;134354;1263;107307;-89
2024/02/07 09:29:04;;;;;;;7.40;3.00;;;;;;;5.55;87.95;98262.23;134387;1264;107820;-87
2024/02/07 09:32:10;;;;;;;7.50;3.10;;;;;;;5.58;88.01;98262.78;134361;1262;107057;-88
2024/02/07 09:35:16;;;;;;;6.60;2.40;;;;;;;5.60;88.08;98255.53;134352;1262;107653;-87
2024/02/07 09:38:21;;;;;;;22.50;8.90;;;;;;;5.62;87.72;98259.52;134333;1262;109273;-87
2024/02/07 09:41:28;;;;;;;10.90;4.00;;;;;;;5.68;87.36;98258.30;134353;1263;107610;-86
2024/02/07 09:44:37;;;;;;;4.20;1.70;;;;;;;5.74;87.48;98259.92;134367;1263;108783;-83
2024/02/07 09:47:49;;;;;;;5.20;2.50;;;;;;;5.63;86.16;98267.14;134231;1264;106923;-90
2024/02/07 09:50:54;;;;;;;;;;;;;;;5.63;87.41;98278.10;134316;1263;108775;-84
2024/02/07 09:54:01;;;;;;;5.00;1.50;;;;;;;5.63;86.80;98273.03;134284;1263;107522;-84
2024/02/07 09:57:07;;;;;;;66.80;19.10;;;;;;;5.59;86.67;98275.89;134313;1263;107779;-84
2024/02/07 10:00:14;;;;;;;9.40;3.50;;;;;;;5.60;87.01;98270.20;134347;1263;107719;-84
2024/02/07 10:03:24;;;;;;;5.30;1.90;;;;;;;5.56;86.68;98275.40;134321;1263;107842;-84
2024/02/07 10:06:30;;;;;;;4.60;2.10;;;;;;;5.58;87.21;98253.77;134336;1264;108527;-84
2024/02/07 10:09:36;;;;;;;5.90;2.60;;;;;;;5.75;87.61;98253.54;134307;1263;108740;-84
2024/02/07 10:12:41;;;;;;;3.40;1.40;;;;;;;5.75;86.27;98281.02;134359;1263;106441;-84
2024/02/07 10:15:48;;;;;;;6.00;3.70;;;;;;;5.61;86.43;98283.77;134340;1263;106224;-84
2024/02/07 10:18:55;;;;;;;37.10;19.60;;;;;;;5.62;87.05;98284.23;134365;1263;108696;-95
2024/02/07 10:22:01;;;;;;;86.70;48.80;;;;;;;5.62;86.30;98287.38;134352;1263;107392;-84
2024/02/07 10:25:10;;;;;;;33.10;17.80;;;;;;;5.53;86.39;98281.48;134341;1263;107548;-84
2024/02/07 10:28:17;;;;;;;28.50;15.00;;;;;;;5.44;86.55;98274.30;134329;1262;107722;-84
2024/02/07 10:31:23;;;;;;;9.50;4.80;;;;;;;5.51;86.97;98277.83;134365;1262;106672;-84
2024/02/07 10:34:29;;;;;;;14.00;6.90;;;;;;;5.54;86.30;98282.81;134332;1263;108546;-84
2024/02/07 10:37:42;;;;;;;10.70;4.80;;;;;;;5.54;86.84;98291.61;134343;1262;107794;-82
2024/02/07 10:40:47;;;;;;;24.70;13.20;;;;;;;5.53;86.48;98293.33;134363;1263;108704;-88
2024/02/07 10:43:53;;;;;;;34.30;19.60;;;;;;;5.53;86.64;98294.91;134364;1262;106229;-88
2024/02/07 10:47:03;;;;;;;43.90;24.80;;;;;;;5.58;86.51;98296.15;134353;1263;108889;-85
2024/02/07 10:50:11;;;;;;;35.30;19.50;;;;;;;5.65;86.10;98300.64;134322;1263;107137;-83
2024/02/07 10:53:17;;;;;;;20.30;11.90;;;;;;;5.70;86.71;98288.81;134328;1263;108593;-89
2024/02/07 10:56:24;;;;;;;27.30;16.50;;;;;;;5.85;86.26;98283.94;134345;1263;107637;-85
2024/02/07 10:59:31;;;;;;;55.30;27.70;;;;;;;5.96;86.10;98285.41;134341;1262;107812;-85
2024/02/07 11:02:44;;;;;;;32.20;17.70;;;;;;;6.07;86.21;98282.38;134313;1263;108762;-84
2024/02/07 11:05:55;;;;;;;34.10;16.70;;;;;;;6.20;85.45;98267.75;134065;1264;107977;-83
2024/02/07 11:09:02;;;;;;;37.00;19.90;;;;;;;6.24;85.58;98245.72;134223;1262;108800;-84
2024/02/07 11:12:10;;;;;;;11.20;5.20;;;;;;;6.33;84.88;98277.05;134362;1263;107119;-84
2024/02/07 11:15:15;;;;;;;14.50;8.30;;;;;;;6.13;84.16;98290.70;134270;1264;108693;-83
2024/02/07 11:18:21;;;;;;;46.10;26.10;;;;;;;5.91;84.24;98295.10;134239;1263;106808;-84
2024/02/07 11:21:31;;;;;;;46.60;24.20;;;;;;;5.82;85.00;98283.95;134239;1263;108422;-84
2024/02/07 11:24:38;;;;;;;69.70;36.50;;;;;;;5.86;86.04;98272.72;134239;1264;107758;-83
2024/02/07 11:27:44;;;;;;;21.60;10.70;;;;;;;5.98;85.37;98282.73;134290;1263;108526;-83
2024/02/07 11:30:54;;;;;;;22.20;13.30;;;;;;;5.95;84.54;98295.09;134340;1262;108638;-83
2024/02/07 11:34:00;;;;;;;7.70;2.90;;;;;;;5.97;84.10;98298.71;134318;1263;108476;-83
2024/02/07 11:37:08;;;;;;;7.90;3.60;;;;;;;5.93;84.57;98305.64;134269;1262;107740;-86
2024/02/07 11:40:15;;;;;;;19.10;12.20;;;;;;;5.97;84.52;98306.88;134396;1262;106732;-86
2024/02/07 11:43:24;;;;;;;13.60;5.20;;;;;;;6.02;84.74;98297.96;134346;1262;108797;-86
2024/02/07 11:46:30;;;;;;;9.50;3.20;;;;;;;6.05;84.33;98294.80;134369;1263;106618;-86
2024/02/07 11:49:39;;;;;;;9.60;3.30;;;;;;;6.08;84.59;98297.31;134345;1263;109518;-86
2024/02/07 11:52:46;;;;;;;5.70;3.20;;;;;;;6.12;84.34;98290.84;134345;1262;108630;-85
2024/02/07 11:55:51;;;;;;;6.90;2.80;;;;;;;6.09;83.73;98291.67;134363;1263;109448;-86
2024/02/07 11:58:57;;;;;;;10.60;4.80;;;;;;;6.13;84.02;98286.56;134266;1263;107528;-87
2024/02/07 12:02:03;;;;;;;8.80;3.00;;;;;;;6.16;84.51;98281.45;134265;1263;108752;-87
2024/02/07 12:05:15;;;;;;;7.20;3.50;;;;;;;6.25;84.07;98279.52;134352;1263;106481;-87
2024/02/07 12:08:21;;;;;;;7.80;3.70;;;;;;;6.23;83.42;98296.54;134383;1262;108695;-86
2024/02/07 12:11:27;;;;;;;6.10;2.60;;;;;;;6.13;83.45;98289.50;134369;1263;107372;-87
2024/02/07 12:14:33;;;;;;;7.70;3.00;;;;;;;6.00;83.20;98306.75;134369;1263;107680;-86
2024/02/07 12:17:38;;;;;;;14.30;5.80;;;;;;;5.91;83.17;98300.92;134355;1263;106931;-84
2024/02/07 12:20:44;;;;;;;250.30;97.20;;;;;;;5.92;83.80;98308.73;134348;1262;106619;-83
2024/02/07 12:23:50;;;;;;;120.90;42.80;;;;;;;6.02;83.75;98310.54;134317;1263;108695;-84
2024/02/07 12:27:06;;;;;;;72.80;30.20;;;;;;;6.10;83.93;98306.06;134320;1262;108669;-83
2024/02/07 12:30:13;;;;;;;282.10;109.50;;;;;;;6.22;83.43;98307.93;134338;1262;108688;-83
2024/02/07 12:33:18;;;;;;;157.90;55.80;;;;;;;6.28;83.42;98305.45;134343;1263;106802;-83
2024/02/07 12:36:24;;;;;;;41.70;13.90;;;;;;;6.37;82.86;98310.10;134355;1262;107880;-83
2024/02/07 12:39:30;;;;;;;579.50;246.20;;;;;;;6.34;82.38;98310.13;134335;1263;107551;-84
2024/02/07 12:42:37;;;;;;;157.30;51.80;;;;;;;6.32;83.24;98307.55;134364;1262;107296;-83
2024/02/07 12:45:47;;;;;;;83.20;30.50;;;;;;;6.31;82.46;98310.47;134371;1263;108639;-83
2024/02/07 12:48:52;;;;;;;303.40;112.00;;;;;;;6.13;82.08;98319.66;134357;1262;108640;-84
2024/02/07 12:51:58;;;;;;;384.50;143.00;;;;;;;6.03;82.54;98320.63;134351;1262;107659;-84
2024/02/07 12:55:04;;;;;;;356.20;118.50;;;;;;;6.00;82.68;98320.10;134293;1262;107654;-83
2024/02/07 12:58:09;;;;;;;275.30;96.50;;;;;;;6.00;82.64;98322.42;134273;1263;107651;-82
2024/02/07 13:01:21;;;;;;;309.00;103.70;;;;;;;6.03;82.68;98329.92;134328;1263;109400;-81
2024/02/07 13:04:26;;;;;;;534.10;262.50;;;;;;;6.12;82.48;98334.95;134344;1262;108547;-81
2024/02/07 13:07:32;;;;;;;236.20;92.30;;;;;;;6.20;82.92;98329.14;134345;1262;108600;-81
2024/02/07 13:10:38;;;;;;;127.10;50.60;;;;;;;6.30;82.50;98334.20;134341;1263;108704;-82
2024/02/07 13:13:43;;;;;;;126.10;57.80;;;;;;;6.33;82.34;98336.19;134327;1262;107978;-82
2024/02/07 13:16:51;;;;;;;74.50;31.50;;;;;;;6.36;82.01;98344.71;134347;1262;108626;-82
2024/02/07 13:19:56;;;;;;;74.60;35.70;;;;;;;6.37;82.24;98340.88;134369;1263;108662;-82
2024/02/07 13:23:02;;;;;;;45.90;22.70;;;;;;;6.35;81.57;98339.62;134357;1262;106559;-82
2024/02/07 13:26:08;;;;;;;27.70;13.10;;;;;;;6.26;81.99;98341.65;134366;1262;108759;-82
2024/02/07 13:29:15;;;;;;;55.80;31.10;;;;;;;6.20;82.08;98343.27;134298;1263;108650;-82
2024/02/07 13:32:22;;;;;;;236.40;86.30;;;;;;;6.20;82.59;98347.20;134329;1263;107715;-81
2024/02/07 13:35:27;;;;;;;191.80;70.30;;;;;;;6.20;82.63;98344.33;134334;1262;108441;-81
2024/02/07 13:38:33;;;;;;;521.00;228.20;;;;;;;6.20;82.49;98346.08;134337;1263;108603;-81
2024/02/07 13:41:39;;;;;;;312.50;111.90;;;;;;;6.19;82.53;98351.88;134339;1263;107237;-81
2024/02/07 13:44:44;;;;;;;389.00;146.40;;;;;;;6.14;82.05;98362.83;134352;1263;107830;-82
2024/02/07 13:47:50;;;;;;;86.90;31.40;;;;;;;6.05;82.23;98364.54;134353;1262;107540;-81
2024/02/07 13:50:56;;;;;;;262.00;84.30;;;;;;;5.92;82.65;98369.68;134350;1262;108570;-81
2024/02/07 13:54:03;;;;;;;176.60;58.50;;;;;;;5.86;82.83;98361.64;134348;1262;107051;-81
2024/02/07 13:57:08;;;;;;;402.70;134.20;;;;;;;5.79;83.18;98369.63;134331;1262;108702;-81
2024/02/07 14:00:16;;;;;;;608.70;256.00;;;;;;;5.73;83.50;98370.38;134343;1262;108627;-82
2024/02/07 14:03:22;;;;;;;515.30;223.20;;;;;;;5.71;83.52;98368.20;134337;1262;107327;-81
2024/02/07 14:06:28;;;;;;;223.60;82.80;;;;;;;5.74;83.52;98368.09;134336;1262;107783;-81
2024/02/07 14:09:33;;;;;;;380.30;171.20;;;;;;;5.79;83.30;98371.58;134342;1262;107365;-81
2024/02/07 14:12:39;;;;;;;151.90;69.10;;;;;;;5.81;83.54;98370.54;134321;1262;108630;-81
2024/02/07 14:15:45;;;;;;;179.40;83.60;;;;;;;5.82;83.55;98372.84;134329;1262;108671;-81
2024/02/07 14:18:50;;;;;;;113.20;55.10;;;;;;;5.82;83.26;98367.39;134338;1262;108538;-82
2024/02/07 14:21:56;;;;;;;25.70;15.00;;;;;;;5.82;83.08;98369.20;134369;1262;107887;-81
2024/02/07 14:25:02;;;;;;;27.70;15.40;;;;;;;5.71;83.28;98371.36;134347;1262;107248;-81
2024/02/07 14:28:08;;;;;;;20.40;11.80;;;;;;;5.69;83.24;98372.38;134334;1262;107700;-81
2024/02/07 14:31:13;;;;;;;28.40;11.00;;;;;;;5.70;83.48;98384.41;134342;1262;108493;-81
2024/02/07 14:34:19;;;;;;;14.90;7.80;;;;;;;5.72;83.27;98379.94;134271;1263;108697;-81
2024/02/07 14:37:25;;;;;;;168.00;59.10;;;;;;;5.76;83.46;98378.35;134218;1263;108809;-81
2024/02/07 14:40:30;;;;;;;129.90;53.30;;;;;;;5.82;83.24;98366.73;134277;1263;108706;-81
2024/02/07 14:43:36;;;;;;;122.20;54.20;;;;;;;5.85;83.16;98364.80;134252;1263;107632;-81
2024/02/07 14:46:41;;;;;;;133.50;59.50;;;;;;;5.81;83.34;98364.66;134231;1263;108458;-81
2024/02/07 14:49:47;;;;;;;84.10;41.60;;;;;;;5.83;83.36;98374.20;134271;1263;108420;-81
2024/02/07 14:52:53;;;;;;;86.40;41.50;;;;;;;5.83;83.33;98377.55;134259;1263;108722;-81
2024/02/07 14:55:59;;;;;;;53.00;24.10;;;;;;;5.76;82.75;98380.42;134247;1263;108440;-81
2024/02/07 14:59:05;;;;;;;34.50;18.40;;;;;;;5.66;83.15;98376.72;134252;1263;107153;-81
2024/02/07 15:02:12;;;;;;;121.70;56.70;;;;;;;5.62;82.96;98380.02;134221;1263;108760;-81
2024/02/07 15:05:18;;;;;;;183.20;72.10;;;;;;;5.63;82.94;98376.67;134252;1263;108670;-81
2024/02/07 15:08:24;;;;;;;57.10;28.80;;;;;;;5.66;82.50;98369.86;134267;1263;107706;-81
2024/02/07 15:11:30;;;;;;;75.50;38.70;;;;;;;5.63;82.67;98368.01;134254;1262;106830;-81
2024/02/07 15:14:42;;;;;;;66.00;33.10;;;;;;;5.66;82.78;98372.02;134215;1262;106823;-82
2024/02/07 15:17:51;;;;;;;189.50;87.20;;;;;;;5.65;82.54;98365.86;134162;1263;108710;-80
2024/02/07 15:20:57;;;;;;;79.50;37.00;;;;;;;5.61;82.54;98364.02;134331;1263;106532;-81
2024/02/07 15:24:02;;;;;;;56.70;31.50;;;;;;;5.58;82.42;98365.51;134360;1262;108521;-81